sensor_id;sensor_type;location;lat;lon;timestamp;pressure;altitude;pressure_sealevel;temperature;humidity
39411;BME280;26579;43.238;23.124;2023-05-23T00:00:55;96831.78;;;15.47;84.30
39411;BME280;26579;43.238;23.124;2023-05-23T00:03:20;96834.78;;;15.52;84.59
39411;BME280;26579;43.238;23.124;2023-05-23T00:05:46;96836.75;;;15.58;83.95
39411;BME280;26579;43.238;23.124;2023-05-23T00:08:11;96820.19;;;15.57;83.35
39411;BME280;26579;43.238;23.124;2023-05-23T00:10:37;96819.72;;;15.62;83.33
39411;BME280;26579;43.238;23.124;2023-05-23T00:13:03;96818.25;;;15.59;83.46
39411;BME280;26579;43.238;23.124;2023-05-23T00:15:28;96811.88;;;15.62;82.97
39411;BME280;26579;43.238;23.124;2023-05-23T00:17:54;96810.53;;;15.58;83.36
39411;BME280;26579;43.238;23.124;2023-05-23T00:20:20;96813.25;;;15.40;84.09
39411;BME280;26579;43.238;23.124;2023-05-23T00:22:45;96820.63;;;15.36;84.57
39411;BME280;26579;43.238;23.124;2023-05-23T00:25:11;96806.53;;;15.37;84.66
39411;BME280;26579;43.238;23.124;2023-05-23T00:27:37;96806.16;;;15.24;85.48
39411;BME280;26579;43.238;23.124;2023-05-23T00:30:03;96817.97;;;15.28;85.65
39411;BME280;26579;43.238;23.124;2023-05-23T00:32:30;96818.09;;;15.27;85.57
39411;BME280;26579;43.238;23.124;2023-05-23T00:34:56;96825.16;;;15.26;85.84
39411;BME280;26579;43.238;23.124;2023-05-23T00:37:21;96827.16;;;15.32;85.45
39411;BME280;26579;43.238;23.124;2023-05-23T00:39:47;96833.75;;;15.36;85.14
39411;BME280;26579;43.238;23.124;2023-05-23T00:42:13;96829.50;;;15.44;85.10
39411;BME280;26579;43.238;23.124;2023-05-23T00:44:39;96818.38;;;15.50;84.86
39411;BME280;26579;43.238;23.124;2023-05-23T00:47:06;96806.06;;;15.50;84.61
39411;BME280;26579;43.238;23.124;2023-05-23T00:49:32;96826.94;;;15.60;84.10
39411;BME280;26579;43.238;23.124;2023-05-23T00:51:59;96825.13;;;15.60;83.53
39411;BME280;26579;43.238;23.124;2023-05-23T00:54:27;96824.81;;;15.63;83.27
39411;BME280;26579;43.238;23.124;2023-05-23T00:56:54;96827.28;;;15.65;83.49
39411;BME280;26579;43.238;23.124;2023-05-23T00:59:20;96828.63;;;15.69;83.13
39411;BME280;26579;43.238;23.124;2023-05-23T01:01:48;96824.03;;;15.71;82.79
39411;BME280;26579;43.238;23.124;2023-05-23T01:04:16;96811.25;;;15.68;82.80
39411;BME280;26579;43.238;23.124;2023-05-23T01:06:42;96807.94;;;15.66;82.78
39411;BME280;26579;43.238;23.124;2023-05-23T01:09:07;96814.81;;;15.67;82.71
39411;BME280;26579;43.238;23.124;2023-05-23T01:11:44;96810.69;;;15.65;82.79
39411;BME280;26579;43.238;23.124;2023-05-23T01:14:19;96811.06;;;15.70;82.87
39411;BME280;26579;43.238;23.124;2023-05-23T01:16:52;96806.44;;;15.63;82.71
39411;BME280;26579;43.238;23.124;2023-05-23T01:22:47;96802.63;;;15.50;83.75
39411;BME280;26579;43.238;23.124;2023-05-23T01:27:54;96808.47;;;15.35;84.87
39411;BME280;26579;43.238;23.124;2023-05-23T01:30:20;96808.47;;;15.27;84.92
39411;BME280;26579;43.238;23.124;2023-05-23T01:32:49;96800.06;;;15.24;85.31
39411;BME280;26579;43.238;23.124;2023-05-23T01:35:21;96802.50;;;15.17;86.10
39411;BME280;26579;43.238;23.124;2023-05-23T01:37:48;96794.97;;;15.14;86.18
39411;BME280;26579;43.238;23.124;2023-05-23T01:40:14;96794.28;;;15.12;85.86
39411;BME280;26579;43.238;23.124;2023-05-23T01:42:41;96797.91;;;15.11;86.14
39411;BME280;26579;43.238;23.124;2023-05-23T01:45:07;96794.09;;;15.05;86.01
39411;BME280;26579;43.238;23.124;2023-05-23T01:47:34;96789.31;;;15.01;86.33
39411;BME280;26579;43.238;23.124;2023-05-23T01:50:01;96797.41;;;15.07;86.19
39411;BME280;26579;43.238;23.124;2023-05-23T01:52:28;96791.63;;;15.04;85.83
39411;BME280;26579;43.238;23.124;2023-05-23T01:54:55;96802.97;;;15.12;85.36
39411;BME280;26579;43.238;23.124;2023-05-23T01:57:21;96799.53;;;15.12;85.17
39411;BME280;26579;43.238;23.124;2023-05-23T01:59:49;96803.50;;;15.16;84.80
39411;BME280;26579;43.238;23.124;2023-05-23T02:02:14;96794.50;;;15.19;84.00
39411;BME280;26579;43.238;23.124;2023-05-23T02:04:40;96787.91;;;15.14;83.91
39411;BME280;26579;43.238;23.124;2023-05-23T02:07:06;96794.50;;;15.19;83.80
39411;BME280;26579;43.238;23.124;2023-05-23T02:09:32;96800.75;;;15.26;83.10
39411;BME280;26579;43.238;23.124;2023-05-23T02:11:57;96795.97;;;15.21;83.27
39411;BME280;26579;43.238;23.124;2023-05-23T02:14:23;96810.56;;;15.24;83.33
39411;BME280;26579;43.238;23.124;2023-05-23T02:16:49;96808.97;;;15.31;83.03
39411;BME280;26579;43.238;23.124;2023-05-23T02:19:15;96796.00;;;15.29;82.71
39411;BME280;26579;43.238;23.124;2023-05-23T02:21:40;96798.16;;;15.34;82.20
39411;BME280;26579;43.238;23.124;2023-05-23T02:24:06;96802.41;;;15.35;82.25
39411;BME280;26579;43.238;23.124;2023-05-23T02:26:32;96804.53;;;15.31;82.40
39411;BME280;26579;43.238;23.124;2023-05-23T02:28:57;96804.03;;;15.28;82.34
39411;BME280;26579;43.238;23.124;2023-05-23T02:31:23;96794.81;;;15.24;82.28
39411;BME280;26579;43.238;23.124;2023-05-23T02:33:49;96804.34;;;15.25;82.35
39411;BME280;26579;43.238;23.124;2023-05-23T02:36:15;96802.06;;;15.22;82.73
39411;BME280;26579;43.238;23.124;2023-05-23T02:38:40;96804.78;;;15.12;83.06
39411;BME280;26579;43.238;23.124;2023-05-23T02:41:06;96806.94;;;15.16;82.75
39411;BME280;26579;43.238;23.124;2023-05-23T02:43:32;96806.13;;;15.16;82.65
39411;BME280;26579;43.238;23.124;2023-05-23T02:45:58;96801.28;;;15.03;82.89
39411;BME280;26579;43.238;23.124;2023-05-23T02:48:23;96812.00;;;15.10;83.01
39411;BME280;26579;43.238;23.124;2023-05-23T02:50:49;96808.84;;;15.06;83.05
39411;BME280;26579;43.238;23.124;2023-05-23T02:53:15;96814.09;;;15.06;83.07
39411;BME280;26579;43.238;23.124;2023-05-23T02:55:40;96809.34;;;15.02;82.59
39411;BME280;26579;43.238;23.124;2023-05-23T02:58:06;96806.03;;;15.00;83.06
39411;BME280;26579;43.238;23.124;2023-05-23T03:00:32;96805.53;;;14.96;82.78
39411;BME280;26579;43.238;23.124;2023-05-23T03:02:58;96814.22;;;14.97;82.92
39411;BME280;26579;43.238;23.124;2023-05-23T03:05:23;96805.53;;;14.96;82.96
39411;BME280;26579;43.238;23.124;2023-05-23T03:07:49;96805.53;;;14.96;83.13
39411;BME280;26579;43.238;23.124;2023-05-23T03:10:15;96796.63;;;14.89;83.57
39411;BME280;26579;43.238;23.124;2023-05-23T03:12:41;96795.13;;;14.86;83.19
39411;BME280;26579;43.238;23.124;2023-05-23T03:15:07;96798.75;;;14.85;83.65
39411;BME280;26579;43.238;23.124;2023-05-23T03:17:34;96797.44;;;14.81;83.83
39411;BME280;26579;43.238;23.124;2023-05-23T03:20:00;96801.94;;;14.71;84.62
39411;BME280;26579;43.238;23.124;2023-05-23T03:22:25;96801.75;;;14.64;84.88
39411;BME280;26579;43.238;23.124;2023-05-23T03:24:51;96804.97;;;14.58;85.78
39411;BME280;26579;43.238;23.124;2023-05-23T03:27:17;96806.78;;;14.58;85.46
39411;BME280;26579;43.238;23.124;2023-05-23T03:29:43;96799.53;;;14.52;85.42
39411;BME280;26579;43.238;23.124;2023-05-23T03:32:09;96807.28;;;14.61;85.19
39411;BME280;26579;43.238;23.124;2023-05-23T03:34:34;96794.13;;;14.53;85.84
39411;BME280;26579;43.238;23.124;2023-05-23T03:37:00;96802.97;;;14.52;85.96
39411;BME280;26579;43.238;23.124;2023-05-23T03:39:26;96817.56;;;14.55;86.04
39411;BME280;26579;43.238;23.124;2023-05-23T03:41:51;96805.13;;;14.57;86.09
39411;BME280;26579;43.238;23.124;2023-05-23T03:44:18;96809.91;;;14.61;86.13
39411;BME280;26579;43.238;23.124;2023-05-23T03:46:44;96818.44;;;14.63;85.49
39411;BME280;26579;43.238;23.124;2023-05-23T03:49:09;96819.84;;;14.76;84.91
39411;BME280;26579;43.238;23.124;2023-05-23T03:51:35;96799.50;;;14.69;84.77
39411;BME280;26579;43.238;23.124;2023-05-23T03:54:01;96822.50;;;14.84;84.91
39411;BME280;26579;43.238;23.124;2023-05-23T03:56:26;96818.44;;;14.89;84.49
39411;BME280;26579;43.238;23.124;2023-05-23T03:58:52;96834.00;;;14.91;84.55
39411;BME280;26579;43.238;23.124;2023-05-23T04:01:18;96832.41;;;14.98;85.07
39411;BME280;26579;43.238;23.124;2023-05-23T04:03:45;96830.41;;;14.92;85.10
39411;BME280;26579;43.238;23.124;2023-05-23T04:06:11;96843.56;;;15.00;84.63
39411;BME280;26579;43.238;23.124;2023-05-23T04:08:38;96828.03;;;15.07;84.43
39411;BME280;26579;43.238;23.124;2023-05-23T04:11:04;96833.28;;;15.07;84.55
39411;BME280;26579;43.238;23.124;2023-05-23T04:13:34;96835.41;;;15.11;85.00
39411;BME280;26579;43.238;23.124;2023-05-23T04:16:00;96833.31;;;15.15;84.49
39411;BME280;26579;43.238;23.124;2023-05-23T04:18:26;96830.69;;;15.15;84.33
39411;BME280;26579;43.238;23.124;2023-05-23T04:20:52;96841.66;;;15.10;84.54
39411;BME280;26579;43.238;23.124;2023-05-23T04:23:18;96847.28;;;15.24;84.00
39411;BME280;26579;43.238;23.124;2023-05-23T04:25:47;96852.56;;;15.32;84.28
39411;BME280;26579;43.238;23.124;2023-05-23T04:28:34;96862.41;;;15.38;84.86
39411;BME280;26579;43.238;23.124;2023-05-23T04:31:00;96856.03;;;15.40;84.02
39411;BME280;26579;43.238;23.124;2023-05-23T04:33:28;96852.28;;;15.43;83.64
39411;BME280;26579;43.238;23.124;2023-05-23T04:35:54;96856.03;;;15.40;83.79
39411;BME280;26579;43.238;23.124;2023-05-23T04:38:20;96856.13;;;15.57;84.06
39411;BME280;26579;43.238;23.124;2023-05-23T04:40:46;96854.97;;;15.59;84.01
39411;BME280;26579;43.238;23.124;2023-05-23T04:43:30;96850.38;;;15.53;83.59
39411;BME280;26579;43.238;23.124;2023-05-23T04:46:02;96867.94;;;15.61;83.60
39411;BME280;26579;43.238;23.124;2023-05-23T04:48:37;96869.41;;;15.63;84.09
39411;BME280;26579;43.238;23.124;2023-05-23T04:51:03;96863.19;;;15.56;84.45
39411;BME280;26579;43.238;23.124;2023-05-23T04:53:29;96879.09;;;15.63;84.04
39411;BME280;26579;43.238;23.124;2023-05-23T04:55:55;96876.28;;;15.65;83.99
39411;BME280;26579;43.238;23.124;2023-05-23T04:58:21;96877.97;;;15.66;84.45
39411;BME280;26579;43.238;23.124;2023-05-23T05:00:47;96883.28;;;15.74;84.38
39411;BME280;26579;43.238;23.124;2023-05-23T05:03:14;96864.56;;;15.85;84.10
39411;BME280;26579;43.238;23.124;2023-05-23T05:05:44;96869.03;;;15.93;85.34
39411;BME280;26579;43.238;23.124;2023-05-23T05:08:09;96852.63;;;15.99;84.33
39411;BME280;26579;43.238;23.124;2023-05-23T05:10:37;96874.03;;;16.20;84.40
39411;BME280;26579;43.238;23.124;2023-05-23T05:13:03;96870.06;;;16.16;84.39
39411;BME280;26579;43.238;23.124;2023-05-23T05:15:36;96840.03;;;16.19;84.20
39411;BME280;26579;43.238;23.124;2023-05-23T05:18:02;96862.84;;;16.43;83.92
39411;BME280;26579;43.238;23.124;2023-05-23T05:20:28;96861.56;;;16.55;83.59
39411;BME280;26579;43.238;23.124;2023-05-23T05:22:56;96858.75;;;16.57;82.84
39411;BME280;26579;43.238;23.124;2023-05-23T05:25:21;96869.44;;;16.63;82.58
39411;BME280;26579;43.238;23.124;2023-05-23T05:27:47;96875.88;;;16.77;81.59
39411;BME280;26579;43.238;23.124;2023-05-23T05:30:16;96867.50;;;16.82;81.08
39411;BME280;26579;43.238;23.124;2023-05-23T05:32:49;96870.75;;;16.92;81.05
39411;BME280;26579;43.238;23.124;2023-05-23T05:35:16;96873.38;;;17.00;79.88
39411;BME280;26579;43.238;23.124;2023-05-23T05:37:43;96870.88;;;16.98;79.63
39411;BME280;26579;43.238;23.124;2023-05-23T05:40:11;96872.53;;;17.08;79.33
39411;BME280;26579;43.238;23.124;2023-05-23T05:42:40;96876.44;;;17.20;78.23
39411;BME280;26579;43.238;23.124;2023-05-23T05:45:06;96869.53;;;17.19;78.40
39411;BME280;26579;43.238;23.124;2023-05-23T05:47:33;96876.44;;;17.28;78.52
39411;BME280;26579;43.238;23.124;2023-05-23T05:49:58;96866.84;;;17.43;77.45
39411;BME280;26579;43.238;23.124;2023-05-23T05:52:24;96872.88;;;17.60;73.64
39411;BME280;26579;43.238;23.124;2023-05-23T05:54:50;96868.84;;;17.73;72.52
39411;BME280;26579;43.238;23.124;2023-05-23T05:57:15;96864.06;;;17.76;72.58
39411;BME280;26579;43.238;23.124;2023-05-23T05:59:41;96866.28;;;17.96;71.58
39411;BME280;26579;43.238;23.124;2023-05-23T06:02:07;96871.69;;;18.02;71.83
39411;BME280;26579;43.238;23.124;2023-05-23T06:04:33;96864.50;;;18.19;71.40
39411;BME280;26579;43.238;23.124;2023-05-23T06:06:58;96861.00;;;18.27;71.13
39411;BME280;26579;43.238;23.124;2023-05-23T06:09:24;96868.66;;;18.37;71.36
39411;BME280;26579;43.238;23.124;2023-05-23T06:11:50;96867.59;;;18.46;71.15
39411;BME280;26579;43.238;23.124;2023-05-23T06:14:16;96869.16;;;18.55;71.26
39411;BME280;26579;43.238;23.124;2023-05-23T06:16:44;96865.19;;;18.59;67.77
39411;BME280;26579;43.238;23.124;2023-05-23T06:19:10;96863.03;;;18.63;67.34
39411;BME280;26579;43.238;23.124;2023-05-23T06:21:37;96866.56;;;18.70;66.79
39411;BME280;26579;43.238;23.124;2023-05-23T06:24:05;96861.81;;;18.73;68.25
39411;BME280;26579;43.238;23.124;2023-05-23T06:26:31;96868.38;;;18.92;69.01
39411;BME280;26579;43.238;23.124;2023-05-23T06:28:57;96857.09;;;18.98;68.74
39411;BME280;26579;43.238;23.124;2023-05-23T06:31:22;96870.06;;;19.08;71.14
39411;BME280;26579;43.238;23.124;2023-05-23T06:33:48;96874.50;;;19.22;70.34
39411;BME280;26579;43.238;23.124;2023-05-23T06:36:14;96868.03;;;19.25;69.24
39411;BME280;26579;43.238;23.124;2023-05-23T06:38:39;96873.88;;;19.35;67.98
39411;BME280;26579;43.238;23.124;2023-05-23T06:41:05;96858.31;;;19.40;67.76
39411;BME280;26579;43.238;23.124;2023-05-23T06:43:30;96863.59;;;19.55;67.65
39411;BME280;26579;43.238;23.124;2023-05-23T06:46:22;96856.38;;;19.64;66.53
39411;BME280;26579;43.238;23.124;2023-05-23T06:48:48;96863.41;;;19.72;66.81
39411;BME280;26579;43.238;23.124;2023-05-23T06:51:14;96854.94;;;19.76;67.38
39411;BME280;26579;43.238;23.124;2023-05-23T06:53:40;96851.44;;;19.90;67.58
39411;BME280;26579;43.238;23.124;2023-05-23T06:56:06;96852.78;;;20.01;68.42
39411;BME280;26579;43.238;23.124;2023-05-23T06:58:38;96845.09;;;20.06;67.07
39411;BME280;26579;43.238;23.124;2023-05-23T07:01:05;96844.72;;;20.09;65.64
39411;BME280;26579;43.238;23.124;2023-05-23T07:03:35;96848.00;;;20.11;65.90
39411;BME280;26579;43.238;23.124;2023-05-23T07:06:04;96851.16;;;20.22;66.60
39411;BME280;26579;43.238;23.124;2023-05-23T07:08:30;96842.00;;;20.24;66.42
39411;BME280;26579;43.238;23.124;2023-05-23T07:11:00;96836.84;;;20.38;65.58
39411;BME280;26579;43.238;23.124;2023-05-23T07:13:46;96836.31;;;20.42;65.84
39411;BME280;26579;43.238;23.124;2023-05-23T07:16:21;96845.91;;;20.50;64.70
39411;BME280;26579;43.238;23.124;2023-05-23T07:19:00;96837.88;;;20.58;64.96
39411;BME280;26579;43.238;23.124;2023-05-23T07:21:27;96839.75;;;20.64;65.13
39411;BME280;26579;43.238;23.124;2023-05-23T07:23:53;96834.47;;;20.64;66.20
39411;BME280;26579;43.238;23.124;2023-05-23T07:26:19;96828.41;;;20.70;65.20
39411;BME280;26579;43.238;23.124;2023-05-23T07:28:49;96833.84;;;20.62;61.46
39411;BME280;26579;43.238;23.124;2023-05-23T07:31:15;96829.81;;;20.66;59.40
39411;BME280;26579;43.238;23.124;2023-05-23T07:33:41;96831.13;;;20.77;59.75
39411;BME280;26579;43.238;23.124;2023-05-23T07:36:10;96836.25;;;20.85;58.67
39411;BME280;26579;43.238;23.124;2023-05-23T07:38:35;96819.81;;;20.90;61.26
39411;BME280;26579;43.238;23.124;2023-05-23T07:41:01;96823.09;;;20.92;60.00
39411;BME280;26579;43.238;23.124;2023-05-23T07:43:27;96824.56;;;21.01;59.59
39411;BME280;26579;43.238;23.124;2023-05-23T07:45:53;96824.03;;;21.12;57.87
39411;BME280;26579;43.238;23.124;2023-05-23T07:48:18;96827.91;;;21.16;57.64
39411;BME280;26579;43.238;23.124;2023-05-23T07:50:44;96824.91;;;21.26;57.98
39411;BME280;26579;43.238;23.124;2023-05-23T07:53:11;96822.31;;;21.33;59.30
39411;BME280;26579;43.238;23.124;2023-05-23T07:55:40;96825.94;;;21.32;59.07
39411;BME280;26579;43.238;23.124;2023-05-23T07:58:06;96828.31;;;21.48;61.05
39411;BME280;26579;43.238;23.124;2023-05-23T08:00:32;96823.06;;;21.61;59.52
39411;BME280;26579;43.238;23.124;2023-05-23T08:03:05;96828.22;;;21.76;60.96
39411;BME280;26579;43.238;23.124;2023-05-23T08:05:37;96826.56;;;21.68;58.42
39411;BME280;26579;43.238;23.124;2023-05-23T08:08:02;96814.97;;;21.76;58.48
39411;BME280;26579;43.238;23.124;2023-05-23T08:10:29;96813.75;;;21.79;56.56
39411;BME280;26579;43.238;23.124;2023-05-23T08:13:05;96830.06;;;21.82;56.81
39411;BME280;26579;43.238;23.124;2023-05-23T08:15:34;96824.78;;;21.82;56.64
39411;BME280;26579;43.238;23.124;2023-05-23T08:18:07;96820.69;;;21.86;56.19
39411;BME280;26579;43.238;23.124;2023-05-23T08:20:33;96820.75;;;22.00;55.93
39411;BME280;26579;43.238;23.124;2023-05-23T08:23:00;96810.75;;;22.02;55.92
39411;BME280;26579;43.238;23.124;2023-05-23T08:25:27;96820.41;;;22.23;56.07
39411;BME280;26579;43.238;23.124;2023-05-23T08:27:53;96807.97;;;22.30;53.99
39411;BME280;26579;43.238;23.124;2023-05-23T08:30:35;96808.81;;;22.44;53.81
39411;BME280;26579;43.238;23.124;2023-05-23T08:33:01;96817.78;;;22.56;51.29
39411;BME280;26579;43.238;23.124;2023-05-23T08:35:27;96807.78;;;22.58;50.32
39411;BME280;26579;43.238;23.124;2023-05-23T08:37:53;96817.19;;;22.60;47.76
39411;BME280;26579;43.238;23.124;2023-05-23T08:40:20;96816.97;;;22.75;46.60
39411;BME280;26579;43.238;23.124;2023-05-23T08:42:54;96818.59;;;22.90;43.85
39411;BME280;26579;43.238;23.124;2023-05-23T08:45:20;96817.16;;;23.00;47.90
39411;BME280;26579;43.238;23.124;2023-05-23T08:47:46;96818.59;;;23.10;49.26
39411;BME280;26579;43.238;23.124;2023-05-23T08:50:15;96821.00;;;23.18;45.25
39411;BME280;26579;43.238;23.124;2023-05-23T08:55:10;96825.09;;;23.14;45.55
39411;BME280;26579;43.238;23.124;2023-05-23T08:57:37;96822.44;;;23.14;46.82
39411;BME280;26579;43.238;23.124;2023-05-23T09:00:19;96818.13;;;23.26;46.42
39411;BME280;26579;43.238;23.124;2023-05-23T09:02:45;96817.44;;;23.44;46.53
39411;BME280;26579;43.238;23.124;2023-05-23T09:05:34;96814.78;;;23.50;42.72
39411;BME280;26579;43.238;23.124;2023-05-23T09:08:00;96815.41;;;23.46;42.13
39411;BME280;26579;43.238;23.124;2023-05-23T09:10:27;96813.97;;;23.43;41.90
39411;BME280;26579;43.238;23.124;2023-05-23T09:12:52;96811.47;;;23.55;43.33
39411;BME280;26579;43.238;23.124;2023-05-23T09:15:18;96815.88;;;23.81;48.34
39411;BME280;26579;43.238;23.124;2023-05-23T09:17:44;96810.09;;;23.91;46.21
39411;BME280;26579;43.238;23.124;2023-05-23T09:20:12;96805.81;;;23.90;43.90
39411;BME280;26579;43.238;23.124;2023-05-23T09:22:47;96815.97;;;23.55;43.17
39411;BME280;26579;43.238;23.124;2023-05-23T09:25:14;96803.91;;;23.59;46.16
39411;BME280;26579;43.238;23.124;2023-05-23T09:27:44;96808.34;;;23.78;47.90
39411;BME280;26579;43.238;23.124;2023-05-23T09:30:11;96814.63;;;23.90;44.45
39411;BME280;26579;43.238;23.124;2023-05-23T09:32:38;96816.16;;;24.05;47.66
39411;BME280;26579;43.238;23.124;2023-05-23T09:35:05;96808.28;;;23.91;41.45
39411;BME280;26579;43.238;23.124;2023-05-23T09:37:36;96815.19;;;23.99;41.62
39411;BME280;26579;43.238;23.124;2023-05-23T09:40:07;96808.56;;;24.15;44.77
39411;BME280;26579;43.238;23.124;2023-05-23T09:42:34;96814.81;;;24.27;44.41
39411;BME280;26579;43.238;23.124;2023-05-23T09:45:01;96805.97;;;24.33;41.80
39411;BME280;26579;43.238;23.124;2023-05-23T09:47:28;96810.16;;;24.16;42.05
39411;BME280;26579;43.238;23.124;2023-05-23T09:49:54;96799.34;;;24.11;42.12
39411;BME280;26579;43.238;23.124;2023-05-23T09:52:20;96803.00;;;24.16;40.70
39411;BME280;26579;43.238;23.124;2023-05-23T09:54:46;96805.22;;;24.26;42.33
39411;BME280;26579;43.238;23.124;2023-05-23T09:57:14;96791.78;;;24.14;40.17
39411;BME280;26579;43.238;23.124;2023-05-23T09:59:41;96791.44;;;24.04;41.07
39411;BME280;26579;43.238;23.124;2023-05-23T10:02:15;96798.72;;;24.15;41.52
39411;BME280;26579;43.238;23.124;2023-05-23T10:04:41;96787.56;;;24.32;42.47
39411;BME280;26579;43.238;23.124;2023-05-23T10:07:17;96783.69;;;24.28;40.54
39411;BME280;26579;43.238;23.124;2023-05-23T10:09:54;96788.81;;;24.29;41.20
39411;BME280;26579;43.238;23.124;2023-05-23T10:15:03;96782.53;;;24.49;42.14
39411;BME280;26579;43.238;23.124;2023-05-23T10:20:29;96771.88;;;24.49;40.20
39411;BME280;26579;43.238;23.124;2023-05-23T10:22:55;96776.75;;;24.58;41.46
39411;BME280;26579;43.238;23.124;2023-05-23T10:25:23;96778.34;;;24.59;41.11
39411;BME280;26579;43.238;23.124;2023-05-23T10:27:49;96775.63;;;24.66;41.94
39411;BME280;26579;43.238;23.124;2023-05-23T10:30:15;96772.22;;;24.59;41.17
39411;BME280;26579;43.238;23.124;2023-05-23T10:32:42;96771.53;;;24.45;39.14
39411;BME280;26579;43.238;23.124;2023-05-23T10:35:29;96764.69;;;24.56;39.74
39411;BME280;26579;43.238;23.124;2023-05-23T10:40:57;96766.28;;;24.82;38.74
39411;BME280;26579;43.238;23.124;2023-05-23T10:43:39;96764.63;;;24.62;39.01
39411;BME280;26579;43.238;23.124;2023-05-23T10:46:07;96761.44;;;24.72;37.96
39411;BME280;26579;43.238;23.124;2023-05-23T10:48:34;96756.19;;;24.40;37.97
39411;BME280;26579;43.238;23.124;2023-05-23T10:51:07;96760.88;;;24.45;39.94
39411;BME280;26579;43.238;23.124;2023-05-23T10:53:40;96754.19;;;24.61;43.74
39411;BME280;26579;43.238;23.124;2023-05-23T10:56:08;96756.56;;;24.69;39.55
39411;BME280;26579;43.238;23.124;2023-05-23T10:58:36;96749.00;;;24.66;37.10
39411;BME280;26579;43.238;23.124;2023-05-23T11:01:13;96746.00;;;24.81;37.80
39411;BME280;26579;43.238;23.124;2023-05-23T11:06:42;96760.13;;;25.25;38.18
39411;BME280;26579;43.238;23.124;2023-05-23T11:09:14;96743.09;;;25.26;39.15
39411;BME280;26579;43.238;23.124;2023-05-23T11:11:58;96756.19;;;25.27;38.97
39411;BME280;26579;43.238;23.124;2023-05-23T11:19:37;96753.75;;;25.26;36.15
39411;BME280;26579;43.238;23.124;2023-05-23T11:22:07;96749.97;;;25.15;37.10
39411;BME280;26579;43.238;23.124;2023-05-23T11:25:08;96747.38;;;25.27;38.21
39411;BME280;26579;43.238;23.124;2023-05-23T11:27:39;96744.50;;;25.28;37.60
39411;BME280;26579;43.238;23.124;2023-05-23T11:30:10;96746.41;;;25.03;36.10
39411;BME280;26579;43.238;23.124;2023-05-23T11:32:36;96751.97;;;25.20;36.97
39411;BME280;26579;43.238;23.124;2023-05-23T11:35:06;96745.66;;;25.33;37.81
39411;BME280;26579;43.238;23.124;2023-05-23T11:37:32;96750.47;;;25.42;37.47
39411;BME280;26579;43.238;23.124;2023-05-23T11:39:58;96729.78;;;25.56;37.64
39411;BME280;26579;43.238;23.124;2023-05-23T11:42:24;96743.63;;;25.65;38.82
39411;BME280;26579;43.238;23.124;2023-05-23T11:44:51;96743.00;;;25.81;38.93
39411;BME280;26579;43.238;23.124;2023-05-23T11:47:18;96726.25;;;25.74;34.97
39411;BME280;26579;43.238;23.124;2023-05-23T11:49:47;96730.13;;;25.78;34.60
39411;BME280;26579;43.238;23.124;2023-05-23T11:52:13;96736.81;;;25.69;35.78
39411;BME280;26579;43.238;23.124;2023-05-23T11:54:40;96733.75;;;25.84;38.13
39411;BME280;26579;43.238;23.124;2023-05-23T11:57:06;96733.44;;;25.73;36.65
39411;BME280;26579;43.238;23.124;2023-05-23T11:59:32;96739.63;;;25.56;36.24
39411;BME280;26579;43.238;23.124;2023-05-23T12:01:58;96740.13;;;25.83;37.66
39411;BME280;26579;43.238;23.124;2023-05-23T12:04:24;96729.81;;;25.86;36.64
39411;BME280;26579;43.238;23.124;2023-05-23T12:06:50;96715.34;;;25.94;36.29
39411;BME280;26579;43.238;23.124;2023-05-23T12:09:16;96728.63;;;25.82;33.55
39411;BME280;26579;43.238;23.124;2023-05-23T12:11:43;96725.19;;;25.63;34.15
39411;BME280;26579;43.238;23.124;2023-05-23T12:14:13;96712.31;;;25.60;34.34
39411;BME280;26579;43.238;23.124;2023-05-23T12:16:43;96717.50;;;25.55;33.07
39411;BME280;26579;43.238;23.124;2023-05-23T12:19:09;96703.28;;;25.61;35.62
39411;BME280;26579;43.238;23.124;2023-05-23T12:21:44;96711.91;;;25.45;34.61
39411;BME280;26579;43.238;23.124;2023-05-23T12:24:21;96703.22;;;25.49;32.86
39411;BME280;26579;43.238;23.124;2023-05-23T12:26:49;96702.78;;;25.52;34.02
39411;BME280;26579;43.238;23.124;2023-05-23T12:29:17;96698.34;;;25.46;32.94
39411;BME280;26579;43.238;23.124;2023-05-23T12:31:43;96705.94;;;25.61;32.44
39411;BME280;26579;43.238;23.124;2023-05-23T12:34:10;96684.06;;;25.71;34.39
39411;BME280;26579;43.238;23.124;2023-05-23T12:36:36;96706.34;;;26.07;37.16
39411;BME280;26579;43.238;23.124;2023-05-23T12:39:02;96701.00;;;26.07;31.87
39411;BME280;26579;43.238;23.124;2023-05-23T12:41:29;96688.00;;;26.10;31.87
39411;BME280;26579;43.238;23.124;2023-05-23T12:43:55;96694.75;;;26.13;32.32
39411;BME280;26579;43.238;23.124;2023-05-23T12:46:23;96682.22;;;26.25;33.30
39411;BME280;26579;43.238;23.124;2023-05-23T12:48:49;96688.25;;;26.20;31.74
39411;BME280;26579;43.238;23.124;2023-05-23T12:51:15;96680.94;;;26.16;32.92
39411;BME280;26579;43.238;23.124;2023-05-23T12:53:41;96674.78;;;25.92;31.77
39411;BME280;26579;43.238;23.124;2023-05-23T12:56:07;96681.38;;;25.89;30.93
39411;BME280;26579;43.238;23.124;2023-05-23T12:58:33;96658.78;;;25.92;34.34
39411;BME280;26579;43.238;23.124;2023-05-23T13:00:58;96678.59;;;25.96;31.26
39411;BME280;26579;43.238;23.124;2023-05-23T13:03:24;96675.97;;;25.78;31.53
39411;BME280;26579;43.238;23.124;2023-05-23T13:05:50;96681.84;;;25.86;32.22
39411;BME280;26579;43.238;23.124;2023-05-23T13:08:16;96668.41;;;26.05;35.67
39411;BME280;26579;43.238;23.124;2023-05-23T13:10:41;96668.75;;;26.20;33.43
39411;BME280;26579;43.238;23.124;2023-05-23T13:13:07;96667.34;;;26.29;32.53
39411;BME280;26579;43.238;23.124;2023-05-23T13:15:33;96662.50;;;26.26;32.42
39411;BME280;26579;43.238;23.124;2023-05-23T13:17:58;96660.75;;;26.32;31.15